Board index FlightGear Support Tools OpenRadar

METAR server is currently down  Topic is solved

OpenRadar is a standalone radar screen which connects to the FlightGear multiplayer servers. It is currently being developed.

METAR server is currently down

Postby wagnerw » Mon Mar 26, 2018 3:42 pm

The metar server responds with HTTP 500 internal error in the moment... So OR gets no weather data.. I come back
wagnerw
 
Posts: 280
Joined: Tue Nov 06, 2012 8:35 pm
Callsign: D-W794

Re: METAR server is currently down

Postby wkitty42 » Mon Mar 26, 2018 6:04 pm

which one are you using? the one queried by FG seems to be working OK... i have this for EGKK...

Code: Select all
LiveMetarProperties::handleMetarData() received METAR for EGKK: 2018/03/26 17:20 EGKK 261720Z 24006KT CAVOK 11/01 Q1016
2018/03/26 17:20 EGKK 261720Z 24006KT CAVOK 11/01 Q1016
METAR from tgftp.nws.noaa.gov
"You get more air close to the ground," said Angalo. "I read that in a book. You get lots of air low down, and not much when you go up."
"Why not?" said Gurder.
"Dunno. It's frightened of heights, I guess."
User avatar
wkitty42
 
Posts: 4958
Joined: Fri Feb 20, 2015 3:46 pm
Location: central NC, USA
Callsign: wk42
Version: git next
OS: Kubuntu 14.04.5

Re: METAR server is currently down

Postby wagnerw » Mon Mar 26, 2018 8:18 pm

Another one. Thanks for pointing me to this server... The current server is back. Everything in fine again
wagnerw
 
Posts: 280
Joined: Tue Nov 06, 2012 8:35 pm
Callsign: D-W794

Re: METAR server is currently down

Postby wkitty42 » Tue Mar 27, 2018 1:20 am

cool!

FWIW: AFAIK, the one i pointed to is the one that FG has been using since <deity> invented mud... i think curt was there at that time <gd&r!> :mrgreen:

damn! can't do colors...
"You get more air close to the ground," said Angalo. "I read that in a book. You get lots of air low down, and not much when you go up."
"Why not?" said Gurder.
"Dunno. It's frightened of heights, I guess."
User avatar
wkitty42
 
Posts: 4958
Joined: Fri Feb 20, 2015 3:46 pm
Location: central NC, USA
Callsign: wk42
Version: git next
OS: Kubuntu 14.04.5

Re: METAR server was down  

Postby wagnerw » Tue Mar 27, 2018 4:55 am

I have changed OR to use this one too. This gives us the same availability. I had to change because the original one has been shut down / moved. This comes with the next update.
Thank you.
wagnerw
 
Posts: 280
Joined: Tue Nov 06, 2012 8:35 pm
Callsign: D-W794

Re: METAR server is currently down

Postby wkitty42 » Tue Mar 27, 2018 5:27 pm

you're welcome :)
"You get more air close to the ground," said Angalo. "I read that in a book. You get lots of air low down, and not much when you go up."
"Why not?" said Gurder.
"Dunno. It's frightened of heights, I guess."
User avatar
wkitty42
 
Posts: 4958
Joined: Fri Feb 20, 2015 3:46 pm
Location: central NC, USA
Callsign: wk42
Version: git next
OS: Kubuntu 14.04.5


Return to OpenRadar

Who is online

Users browsing this forum: No registered users and 1 guest